Cuba, MO (65453)

6:45 AM CST on December 27, 2014 (GMT -0600)
Rosati, Missouri | Change Station
CLOSE
Current Station
Personal Weather Station
Location: St. James, MO
Elevation: 1043 ft
Nearby Weather Stations

Elev 1043 ft 38.03 °N, 91.54 °W | Updated 11 minutes ago

Overcast
Overcast
48.6 °F
Feels Like 47 °F
N
4.0
Wind Variable Wind from SW
Gusts 6.0 mph

Today
High -- | Low -- °F
--% Chance of Precip.
Yesterday
High -- | Low -- °F
Precip. -- in
7:20 AM 4:52 PM
Waxing Crescent, 36% visible
Pressure 30.05 in
Visibility 8.0 miles
Clouds Overcast 300 ft
Windchill 47 °F
Dew Point 48 °F
Humidity 96%
Rainfall 0.00 in
Snow Depth Not available.
UV 0 out of 12
Pollen .90 out of 12
Air Quality Not available.
Flu Activity Not available.
SPECI KVIH 271230Z AUTO 26010KT 8SM OVC003 09/08 A3005 RMK AO2 T00940083

More Conditions Fewer Conditions

Pressure 30.05 in
Visibility 8.0 miles
Clouds Overcast 300 ft
Windchill 47 °F
Dew Point 48 °F
Humidity 96%
Rainfall 0.00 in
Snow Depth Not available.
UV 0 out of 12
Pollen .90 out of 12
Air Quality Not available.
Flu Activity Not available.
SPECI KVIH 271230Z AUTO 26010KT 8SM OVC003 09/08 A3005 RMK AO2 T00940083

More Conditions Fewer Conditions

10-Day Weather Forecast

Almanac

Astronomy

Dec. 27, 2014 Rise Set
Actual Time
Civil Twilight
Nautical Twilight
Astronomical Twilight
Moon
Length of Visible Light
Length of Day
Tomorrow will be .
, % of the Moon is Illuminated

Today's Extremes

State Highs State Lows

Community

WunderPhotos

Upload Photos

1,780,886 photos uploaded!

WunderBlogs® & News

Nearby

Air Quality

  Air Quality AQ Index Pollutant
Not available.

Snow Depth

Station Depth Elevation

Earthquake Activity

City Distance Mag. Time & Date
Minimum magnitude displayed is 2.5.

Coastal Water Temperatures

Place Temperature

Nearby Weather Stations